EET,Max TemperatureF,Mean TemperatureF,Min TemperatureF,Max Dew PointF,MeanDew PointF,Min DewpointF,Max Humidity, Mean Humidity, Min Humidity, Max Sea Level PressureIn, Mean Sea Level PressureIn, Min Sea Level PressureIn, Max VisibilityMiles, Mean VisibilityMiles, Min VisibilityMiles, Max Wind SpeedMPH, Mean Wind SpeedMPH, Max Gust SpeedMPH,PrecipitationIn, CloudCover, Events, WindDirDegrees
2012-11-1,73,66,59,68,60,52,88,73,64,29.92,29.81,29.74,6,6,6,14,4,22,0.00,6,,134
2012-11-2,80,71,62,66,56,45,100,64,28,29.89,29.79,29.74,6,6,4,12,2,,0.00,1,,277
2012-11-3,78,68,57,59,53,50,82,61,39,30.04,29.99,29.89,6,6,6,10,3,,0.00,2,,189
2012-11-4,75,66,57,59,55,52,88,69,47,30.04,30.03,30.01,6,6,6,8,2,,0.00,4,,207
2012-11-5,77,67,57,61,56,52,88,69,47,30.01,29.95,29.89,6,6,6,12,4,,0.00,3,,233
2012-11-6,82,72,62,61,57,46,88,61,41,29.95,29.89,29.86,6,6,6,12,4,,0.00,2,,249
2012-11-7,77,68,60,61,51,41,94,54,32,30.01,29.97,29.92,6,6,3,16,7,28,0.00,6,Rain,303
2012-11-8,60,56,53,54,45,37,77,66,48,30.12,30.06,29.95,6,6,5,28,15,43,0.00,5,Rain,323
2012-11-9,66,58,50,46,43,37,77,57,40,30.09,30.00,29.92,6,6,6,12,6,,0.00,1,,329
2012-11-10,66,60,53,46,44,41,77,57,43,30.21,30.08,29.98,6,6,6,15,8,,0.00,2,,346
2012-11-11,66,58,50,45,44,43,82,60,43,30.30,30.24,30.21,6,6,6,14,6,,0.00,2,,337
2012-11-12,66,58,51,48,46,45,77,62,49,30.27,30.24,30.21,6,6,6,14,10,,0.00,5,,339
2012-11-13,69,63,57,48,47,43,72,58,43,30.21,30.16,30.12,6,6,6,15,12,,0.00,3,,334
2012-11-14,66,62,55,48,46,45,72,58,46,30.21,30.17,30.12,6,6,6,16,12,29,0.00,1,,338
2012-11-15,64,60,55,48,46,45,72,61,49,30.18,30.14,30.09,6,6,6,10,5,,0.00,4,,344
2012-11-16,64,60,55,52,50,48,82,69,59,30.12,30.09,30.06,6,6,6,13,7,,0.00,5,,331
2012-11-17,64,62,59,54,51,48,77,69,63,30.06,30.03,30.01,6,6,6,16,11,,0.00,5,Rain,334
2012-11-18,66,60,55,50,49,48,77,63,52,30.06,30.05,30.01,6,6,6,14,8,,0.00,5,,341
2012-11-19,66,58,51,55,51,48,88,74,52,30.06,30.03,30.01,6,6,4,9,2,,0.00,5,Rain,79
2012-11-20,66,62,59,59,57,55,94,85,73,30.01,29.97,29.92,6,6,4,4,1,,0.00,7,Rain,-1
2012-11-21,62,60,59,57,56,54,94,87,77,30.04,30.00,29.98,6,5,4,14,2,,0.00,7,Rain,324
2012-11-22,62,60,57,52,46,43,72,60,52,30.18,30.12,30.06,6,6,6,20,10,34,0.00,4,,347
2012-11-23,62,58,51,48,47,45,82,68,52,30.21,30.18,30.15,6,6,6,9,4,,0.00,5,,334
2012-11-24,62,58,53,50,49,46,82,73,63,30.21,30.17,30.12,6,6,6,16,4,,0.00,5,,345
2012-11-25,64,58,51,46,45,43,82,66,49,30.21,30.18,30.12,6,6,6,12,5,,0.00,1,,336
2012-11-26,64,57,48,48,46,43,87,69,45,30.18,30.14,30.12,6,6,6,9,3,,0.00,2,,355
2012-11-27,64,56,48,54,50,45,94,76,59,30.12,30.08,30.06,6,6,6,8,3,,0.00,4,,331
2012-11-28,68,60,51,59,55,50,94,79,64,30.06,30.00,29.95,6,6,4,12,3,,0.00,5,Rain,149
2012-11-29,69,66,64,61,57,54,83,70,60,29.95,29.78,29.71,6,6,4,23,15,37,0.00,6,Rain-Thunderstorm,166
2012-11-30,69,64,59,61,58,54,94,79,60,29.86,29.78,29.74,6,6,4,21,7,,0.00,4,Rain,168